Time;durP1;ratioP1;P1;durP2;ratioP2;P2;SDS_P1;SDS_P2;PMS_P1;PMS_P2;Temp;Humidity;BMP_temperature;BMP_pressure;BME280_temperature;BME280_humidity;BME280_pressure;Samples;Min_cycle;Max_cycle;Signal;HPM_P1;HPM_P2
2023/02/02 00:02:21;;;;;;;2.67;1.40;;;;;;;5.40;100.00;99126.06;6194457;23;20213;-80
2023/02/02 00:04:47;;;;;;;2.03;1.20;;;;;;;5.43;100.00;99141.59;6194383;23;20201;-80
2023/02/02 00:07:16;;;;;;;2.50;1.37;;;;;;;5.45;100.00;99155.53;6193311;23;20651;-80
2023/02/02 00:09:45;;;;;;;3.57;1.47;;;;;;;5.28;100.00;99155.03;6190635;23;20210;-79
2023/02/02 00:12:11;;;;;;;4.50;1.30;;;;;;;5.17;100.00;99186.63;6189795;23;20270;-79
2023/02/02 00:14:38;;;;;;;5.47;1.77;;;;;;;4.95;100.00;99204.44;6191637;23;20209;-80
2023/02/02 00:17:08;;;;;;;4.17;1.50;;;;;;;4.75;100.00;99235.34;6170700;23;20669;-81
2023/02/02 00:19:35;;;;;;;3.57;1.80;;;;;;;4.37;100.00;99256.84;6221006;23;20233;-80
2023/02/02 00:22:02;;;;;;;2.93;1.00;;;;;;;3.58;100.00;99294.84;6207611;23;20214;-79
2023/02/02 00:24:29;;;;;;;2.47;0.20;;;;;;;1.47;100.00;99278.84;6190290;23;20214;-80
2023/02/02 00:26:58;;;;;;;0.17;0.17;;;;;;;1.03;100.00;99292.47;6194967;23;20206;-80
2023/02/02 00:29:28;;;;;;;0.40;0.20;;;;;;;0.57;100.00;99285.22;6167059;23;20210;-80
2023/02/02 00:31:55;;;;;;;0.10;0.10;;;;;;;0.08;100.00;99271.19;6186785;23;20205;-80
2023/02/02 00:34:22;;;;;;;0.10;0.00;;;;;;;0.05;100.00;99264.41;6189455;23;20225;-80
2023/02/02 00:36:49;;;;;;;0.10;0.10;;;;;;;0.13;100.00;99276.78;6194799;23;20206;-81
2023/02/02 00:39:19;;;;;;;0.10;0.00;;;;;;;0.05;100.00;99280.22;6200521;23;20258;-82
2023/02/02 00:41:49;;;;;;;0.73;0.27;;;;;;;0.09;100.00;99268.41;6161951;23;20202;-81
2023/02/02 00:47:19;;;;;;;0.00;0.00;;;;;;;0.12;100.00;99272.50;6213679;23;20166;-81
2023/02/02 00:49:48;;;;;;;0.00;0.00;;;;;;;0.19;100.00;99274.31;6162612;23;20225;-80
2023/02/02 01:17:39;;;;;;;0.10;0.10;;;;;;;1.63;100.00;99271.69;6223424;22;20284;-81
2023/02/02 01:20:07;;;;;;;0.10;0.10;;;;;;;7.36;100.00;99296.88;6167054;23;20213;-80
2023/02/02 01:22:37;;;;;;;0.20;0.10;;;;;;;16.27;100.00;99308.25;6224791;23;20642;-81
2023/02/02 01:25:05;;;;;;;0.20;0.10;;;;;;;16.52;100.00;99312.91;6221768;23;20667;-82
2023/02/02 01:27:32;;;;;;;1.47;0.10;;;;;;;8.45;100.00;99299.63;6227180;23;20244;-82
2023/02/02 01:30:00;;;;;;;0.77;0.27;;;;;;;2.78;100.00;99285.88;6209786;23;20242;-82
2023/02/02 01:32:29;;;;;;;0.20;0.17;;;;;;;1.83;100.00;99281.84;6195622;23;20277;-81
2023/02/02 01:35:03;;;;;;;0.20;0.20;;;;;;;1.27;100.00;99288.97;6236534;23;20205;-82
2023/02/02 01:37:39;;;;;;;0.53;0.17;;;;;;;1.07;100.00;99299.06;6234635;23;20200;-82
2023/02/02 01:40:10;;;;;;;0.30;0.10;;;;;;;0.99;100.00;99301.69;6215695;23;20275;-82
2023/02/02 01:42:42;;;;;;;0.30;0.20;;;;;;;0.95;100.00;99304.84;6193635;23;20199;-82
2023/02/02 01:45:49;;;;;;;3.90;0.30;;;;;;;0.88;100.00;99297.63;6222566;23;20192;-82
2023/02/02 01:54:15;;;;;;;0.50;0.20;;;;;;;0.76;100.00;99285.72;6223119;23;20209;-79
2023/02/02 01:56:56;;;;;;;0.10;0.10;;;;;;;0.76;100.00;99253.25;6153138;23;20657;-80
2023/02/02 01:59:25;;;;;;;0.30;0.10;;;;;;;0.78;100.00;99293.50;6151018;23;20217;-79
2023/02/02 02:01:53;;;;;;;0.50;0.17;;;;;;;0.87;100.00;99281.94;6226265;23;20288;-80
2023/02/02 02:04:22;;;;;;;0.47;0.10;;;;;;;0.89;100.00;99295.78;6200093;23;20201;-80
2023/02/02 02:06:52;;;;;;;2.63;0.33;;;;;;;0.89;100.00;99282.59;6211544;23;20206;-81
2023/02/02 02:09:20;;;;;;;0.17;0.17;;;;;;;0.86;100.00;99238.91;6186647;23;20233;-80
2023/02/02 02:11:56;;;;;;;0.80;0.30;;;;;;;0.81;100.00;99248.31;6164676;23;20214;-81
2023/02/02 02:59:20;;;;;;;0.83;0.20;;;;;;;0.76;100.00;99251.44;6197475;23;20677;-79
2023/02/02 03:02:02;;;;;;;0.53;0.20;;;;;;;0.71;100.00;99242.38;6190647;23;20284;-79
2023/02/02 03:05:07;;;;;;;0.37;0.23;;;;;;;0.70;100.00;99244.19;6214380;23;20228;-80
2023/02/02 03:07:59;;;;;;;0.20;0.20;;;;;;;0.75;100.00;99241.06;6173977;23;20240;-79
2023/02/02 03:10:28;;;;;;;0.73;0.30;;;;;;;0.79;100.00;99239.75;6178060;23;20209;-79
2023/02/02 03:12:55;;;;;;;0.50;0.30;;;;;;;0.80;100.00;99236.94;6191704;23;20232;-79
2023/02/02 03:15:22;;;;;;;0.30;0.30;;;;;;;0.96;100.00;99243.19;6191963;23;20272;-79
2023/02/02 03:17:52;;;;;;;0.63;0.20;;;;;;;0.98;100.00;99249.13;6191622;23;20210;-79
2023/02/02 03:20:19;;;;;;;0.70;0.20;;;;;;;1.09;100.00;99254.88;6190082;23;20233;-80
2023/02/02 03:22:46;;;;;;;0.30;0.30;;;;;;;0.98;100.00;99249.13;6193126;23;20225;-79
2023/02/02 03:25:14;;;;;;;0.70;0.30;;;;;;;0.91;100.00;99240.22;6216100;23;20671;-79
2023/02/02 03:27:41;;;;;;;1.63;0.30;;;;;;;1.11;100.00;99244.97;6192531;23;20733;-79
2023/02/02 03:30:10;;;;;;;2.80;0.60;;;;;;;1.13;100.00;99256.16;6190822;23;20217;-79
2023/02/02 03:32:37;;;;;;;0.40;0.30;;;;;;;1.12;100.00;99251.09;6191992;23;20217;-79
2023/02/02 03:35:04;;;;;;;0.50;0.40;;;;;;;1.18;100.00;99261.78;6191757;23;20210;-80
2023/02/02 03:37:30;;;;;;;0.97;0.60;;;;;;;1.21;100.00;99256.16;6190833;23;20749;-79
2023/02/02 03:40:05;;;;;;;0.43;0.43;;;;;;;1.42;100.00;99260.06;6189950;23;20268;-79
2023/02/02 03:42:31;;;;;;;0.47;0.40;;;;;;;1.28;100.00;99256.31;6190207;23;20212;-80
2023/02/02 03:44:58;;;;;;;1.03;0.53;;;;;;;1.18;100.00;99255.66;6191805;23;20214;-79
2023/02/02 03:47:28;;;;;;;3.13;0.40;;;;;;;1.45;100.00;99257.06;6190957;23;20210;-79
2023/02/02 03:49:55;;;;;;;0.40;0.30;;;;;;;1.41;100.00;99272.44;6189373;23;20218;-79
2023/02/02 03:52:23;;;;;;;1.63;0.40;;;;;;;1.40;100.00;99264.69;6191267;23;20277;-79
2023/02/02 03:54:50;;;;;;;0.40;0.40;;;;;;;1.46;100.00;99266.63;6191971;23;20233;-79
2023/02/02 03:57:16;;;;;;;0.60;0.40;;;;;;;1.56;100.00;99265.44;6191551;23;20284;-79
2023/02/02 03:59:45;;;;;;;2.40;0.50;;;;;;;1.50;100.00;99257.38;6210333;23;20289;-79
2023/02/02 04:02:12;;;;;;;1.30;0.40;;;;;;;1.39;100.00;99244.56;6222440;23;20205;-79
2023/02/02 04:04:42;;;;;;;0.43;0.23;;;;;;;1.46;100.00;99250.78;6237433;22;20188;-81
2023/02/02 04:07:12;;;;;;;0.40;0.30;;;;;;;1.46;100.00;99241.06;6238319;23;20259;-81
2023/02/02 04:09:43;;;;;;;0.30;0.30;;;;;;;1.43;100.00;99232.66;6211146;23;20213;-81
2023/02/02 04:12:13;;;;;;;0.97;0.40;;;;;;;1.50;100.00;99231.81;6186820;23;20261;-80
2023/02/02 04:14:41;;;;;;;0.43;0.30;;;;;;;1.46;100.00;99227.88;6238519;23;20256;-81
2023/02/02 04:17:13;;;;;;;1.03;0.20;;;;;;;1.42;100.00;99229.19;6211808;23;20216;-81
2023/02/02 04:19:41;;;;;;;0.33;0.20;;;;;;;1.38;100.00;99233.19;6188154;23;20232;-81
2023/02/02 04:22:09;;;;;;;0.30;0.20;;;;;;;1.43;100.00;99233.50;6210633;23;20212;-81
2023/02/02 04:24:41;;;;;;;0.83;0.10;;;;;;;1.50;100.00;99237.09;6188689;23;20265;-81
2023/02/02 04:27:11;;;;;;;0.10;0.10;;;;;;;1.41;100.00;99243.38;6210461;23;20210;-81
2023/02/02 04:29:41;;;;;;;0.50;0.13;;;;;;;1.48;100.00;99252.28;6185963;23;20242;-81
2023/02/02 04:32:15;;;;;;;0.30;0.17;;;;;;;1.44;100.00;99261.53;6211086;23;20212;-82
2023/02/02 04:34:43;;;;;;;0.20;0.20;;;;;;;1.47;100.00;99260.38;6239286;23;20204;-82
2023/02/02 04:37:11;;;;;;;0.73;0.10;;;;;;;1.42;100.00;99249.50;6210318;23;20206;-81
2023/02/02 04:39:38;;;;;;;0.97;0.20;;;;;;;1.40;100.00;99270.78;6224885;23;20207;-80
2023/02/02 04:42:05;;;;;;;0.57;0.20;;;;;;;1.40;100.00;99273.41;6195435;23;20224;-79
2023/02/02 04:44:32;;;;;;;1.23;0.40;;;;;;;1.45;100.00;99276.38;6193837;23;20205;-80
2023/02/02 04:46:58;;;;;;;0.20;0.20;;;;;;;1.42;100.00;99268.78;6219701;23;20205;-80
2023/02/02 04:49:25;;;;;;;0.40;0.17;;;;;;;1.43;100.00;99259.91;6220968;23;20209;-81
2023/02/02 04:51:54;;;;;;;1.20;0.20;;;;;;;1.42;100.00;99271.44;6199482;23;20212;-80
2023/02/02 04:54:21;;;;;;;0.47;0.30;;;;;;;1.43;100.00;99256.44;6223319;23;20778;-80
2023/02/02 04:56:48;;;;;;;0.50;0.20;;;;;;;1.36;100.00;99268.63;6165942;23;20213;-80
2023/02/02 04:59:14;;;;;;;0.40;0.40;;;;;;;1.46;100.00;99270.09;6208204;23;20229;-80
2023/02/02 05:01:41;;;;;;;0.30;0.30;;;;;;;1.56;100.00;99267.25;6220853;23;20217;-80
2023/02/02 05:04:09;;;;;;;0.63;0.40;;;;;;;1.53;100.00;99252.59;6221534;23;20284;-80
2023/02/02 05:06:45;;;;;;;1.20;0.40;;;;;;;1.64;100.00;99260.13;6212429;23;20229;-80
2023/02/02 05:09:12;;;;;;;0.57;0.30;;;;;;;1.66;100.00;99259.97;6192619;23;20212;-79
2023/02/02 05:11:43;;;;;;;0.50;0.40;;;;;;;1.70;100.00;99269.19;6190578;23;20264;-79
2023/02/02 05:14:10;;;;;;;0.60;0.40;;;;;;;1.72;100.00;99264.56;6190960;23;20659;-79
2023/02/02 05:16:38;;;;;;;0.47;0.40;;;;;;;1.66;100.00;99273.16;6192239;23;20206;-79
2023/02/02 05:19:05;;;;;;;0.63;0.30;;;;;;;1.67;100.00;99277.47;6215783;23;20210;-79
2023/02/02 05:21:31;;;;;;;0.93;0.40;;;;;;;1.79;100.00;99270.78;6192571;23;20226;-79
2023/02/02 05:24:00;;;;;;;0.87;0.40;;;;;;;1.78;100.00;99285.00;6191675;23;20214;-79
2023/02/02 05:26:26;;;;;;;3.43;0.50;;;;;;;1.72;100.00;99285.69;6195925;23;20204;-79
2023/02/02 05:28:53;;;;;;;1.53;0.50;;;;;;;1.77;100.00;99299.22;6220432;23;20209;-79
2023/02/02 05:31:20;;;;;;;2.37;0.47;;;;;;;1.85;100.00;99296.53;6220495;23;20216;-80
2023/02/02 05:33:47;;;;;;;1.10;0.60;;;;;;;1.91;100.00;99285.28;6198328;23;20695;-80
2023/02/02 05:36:14;;;;;;;0.47;0.33;;;;;;;1.79;100.00;99294.56;6191070;23;20301;-80
2023/02/02 05:38:40;;;;;;;0.40;0.40;;;;;;;1.80;100.00;99290.94;6189892;23;20233;-79
2023/02/02 05:41:09;;;;;;;1.03;0.50;;;;;;;1.74;100.00;99291.63;6190921;23;20210;-79
2023/02/02 05:43:36;;;;;;;2.13;0.50;;;;;;;1.63;100.00;99284.88;6191041;23;20210;-79
2023/02/02 05:46:03;;;;;;;2.17;0.50;;;;;;;1.69;100.00;99286.84;6189347;23;20252;-80
2023/02/02 05:48:32;;;;;;;1.13;0.47;;;;;;;1.67;100.00;99288.03;6191867;23;20209;-79
2023/02/02 05:51:03;;;;;;;1.13;0.40;;;;;;;1.61;100.00;99294.81;6191292;23;20206;-79
2023/02/02 05:53:31;;;;;;;3.33;0.60;;;;;;;1.63;100.00;99290.16;6189271;23;20206;-80
2023/02/02 05:55:58;;;;;;;1.43;0.50;;;;;;;1.52;100.00;99298.47;6190373;23;20210;-79
2023/02/02 05:58:24;;;;;;;4.00;0.70;;;;;;;1.56;100.00;99307.69;6189352;23;20276;-79
2023/02/02 06:00:53;;;;;;;1.77;0.60;;;;;;;1.55;100.00;99308.69;6201004;23;20205;-79
2023/02/02 06:03:22;;;;;;;2.00;0.53;;;;;;;1.46;100.00;99317.63;6220589;23;20731;-79
2023/02/02 06:05:49;;;;;;;1.00;0.60;;;;;;;1.44;100.00;99332.00;6220759;23;20202;-79
2023/02/02 06:08:30;;;;;;;0.30;0.30;;;;;;;1.42;100.00;99341.88;6170225;23;20194;-80
2023/02/02 06:10:56;;;;;;;1.20;0.60;;;;;;;1.46;100.00;99340.56;6220389;23;20220;-80
2023/02/02 06:13:24;;;;;;;2.03;0.70;;;;;;;1.37;100.00;99347.66;6220971;23;20209;-80
2023/02/02 06:15:50;;;;;;;1.50;0.70;;;;;;;1.37;100.00;99350.31;6170437;23;20296;-80
2023/02/02 06:18:17;;;;;;;1.03;0.70;;;;;;;1.34;100.00;99353.28;6193840;23;20220;-79
2023/02/02 06:20:45;;;;;;;1.37;0.50;;;;;;;1.41;100.00;99348.16;6221160;23;20258;-79
2023/02/02 06:23:12;;;;;;;2.97;0.77;;;;;;;1.26;100.00;99359.38;6170728;23;20285;-80
2023/02/02 06:25:39;;;;;;;1.20;0.80;;;;;;;1.30;100.00;99370.47;6195042;23;20205;-80
2023/02/02 06:28:06;;;;;;;1.17;0.70;;;;;;;1.21;100.00;99368.81;6195432;23;20232;-79
2023/02/02 06:30:33;;;;;;;0.70;0.70;;;;;;;1.23;100.00;99370.28;6221947;23;20284;-80
2023/02/02 06:33:00;;;;;;;1.40;0.80;;;;;;;1.17;100.00;99367.47;6195748;23;20237;-80
2023/02/02 06:35:27;;;;;;;2.03;1.00;;;;;;;1.19;100.00;99371.63;6222858;23;20217;-80
2023/02/02 06:37:53;;;;;;;3.83;1.00;;;;;;;1.22;100.00;99370.44;6222584;23;20225;-80
2023/02/02 06:40:20;;;;;;;2.63;0.93;;;;;;;1.32;100.00;99385.13;6195578;23;20209;-80
2023/02/02 06:42:47;;;;;;;2.93;0.90;;;;;;;1.32;100.00;99393.03;6196823;23;20212;-80
2023/02/02 06:45:15;;;;;;;2.20;1.30;;;;;;;1.42;100.00;99400.78;6197513;23;20284;-80
2023/02/02 06:47:45;;;;;;;3.50;1.03;;;;;;;1.47;100.00;99397.66;6223259;23;20213;-80
2023/02/02 06:50:12;;;;;;;6.63;1.40;;;;;;;1.57;100.00;99401.78;6172941;23;20209;-80
2023/02/02 06:52:39;;;;;;;3.33;1.20;;;;;;;1.65;100.00;99408.84;6197592;23;20221;-81
2023/02/02 06:55:07;;;;;;;2.67;0.70;;;;;;;1.77;100.00;99405.66;6197547;23;20255;-80
2023/02/02 06:57:36;;;;;;;0.80;0.60;;;;;;;1.80;100.00;99404.53;6224545;23;20185;-81
2023/02/02 07:00:03;;;;;;;2.83;0.80;;;;;;;1.92;100.00;99410.25;6222559;23;20236;-81
2023/02/02 07:02:32;;;;;;;1.93;0.60;;;;;;;1.96;100.00;99404.47;6197537;23;20205;-80
2023/02/02 07:05:01;;;;;;;1.13;0.43;;;;;;;2.02;100.00;99417.00;6223714;23;20208;-80
2023/02/02 07:07:31;;;;;;;1.10;0.47;;;;;;;2.19;100.00;99413.28;6198031;23;20209;-80
2023/02/02 07:10:00;;;;;;;1.33;0.50;;;;;;;2.19;100.00;99410.66;6224054;23;20205;-80
2023/02/02 07:12:27;;;;;;;2.10;0.60;;;;;;;2.23;100.00;99413.81;6193694;23;20237;-80
2023/02/02 07:14:53;;;;;;;1.00;0.50;;;;;;;2.27;100.00;99412.47;6185553;23;20274;-80
2023/02/02 07:17:28;;;;;;;1.50;0.50;;;;;;;2.29;100.00;99413.09;6194084;23;20284;-80
2023/02/02 07:19:55;;;;;;;1.73;0.60;;;;;;;2.35;100.00;99415.06;6168412;23;20206;-80
2023/02/02 07:22:22;;;;;;;0.70;0.50;;;;;;;2.33;100.00;99425.00;6192711;23;20253;-80
2023/02/02 07:24:50;;;;;;;1.37;0.50;;;;;;;2.38;100.00;99427.13;6193452;23;20229;-80
2023/02/02 07:27:17;;;;;;;1.27;0.50;;;;;;;2.42;100.00;99431.91;6194193;23;20206;-80
2023/02/02 07:29:43;;;;;;;1.37;0.60;;;;;;;2.61;100.00;99428.00;6193478;23;20237;-80
2023/02/02 07:32:10;;;;;;;0.87;0.50;;;;;;;2.66;100.00;99428.28;6167405;23;20210;-80
2023/02/02 07:34:38;;;;;;;1.03;0.40;;;;;;;2.68;100.00;99436.88;6195231;23;20277;-80
2023/02/02 07:37:05;;;;;;;0.50;0.50;;;;;;;2.75;100.00;99440.50;6144971;23;20216;-79
2023/02/02 07:39:31;;;;;;;1.93;0.80;;;;;;;2.84;100.00;99436.81;6170073;23;20209;-81
2023/02/02 07:41:58;;;;;;;1.97;0.47;;;;;;;2.90;100.00;99436.09;6169861;23;20260;-81
2023/02/02 07:44:34;;;;;;;0.83;0.60;;;;;;;2.97;100.00;99431.75;6192127;23;20257;-81
2023/02/02 07:47:01;;;;;;;2.03;0.70;;;;;;;3.04;100.00;99434.50;6168564;23;20213;-81
2023/02/02 07:49:27;;;;;;;1.00;0.50;;;;;;;3.02;100.00;99450.56;6154741;23;20210;-80
2023/02/02 07:51:54;;;;;;;0.40;0.30;;;;;;;3.18;100.00;99452.25;6191985;23;20567;-80
2023/02/02 07:54:23;;;;;;;1.90;0.60;;;;;;;3.26;100.00;99451.41;6167691;23;20210;-80
2023/02/02 07:56:50;;;;;;;1.03;0.60;;;;;;;3.28;100.00;99446.75;6142809;23;20229;-80
2023/02/02 07:59:17;;;;;;;1.90;0.70;;;;;;;3.42;100.00;99446.78;6123976;23;20213;-80
2023/02/02 08:01:44;;;;;;;1.40;0.60;;;;;;;3.39;100.00;99449.81;6191370;23;20264;-81
2023/02/02 08:04:11;;;;;;;1.23;0.50;;;;;;;3.37;100.00;99453.63;6192208;23;20210;-80
2023/02/02 08:06:38;;;;;;;0.90;0.50;;;;;;;3.52;100.00;99457.13;6192630;23;20229;-81
2023/02/02 08:09:08;;;;;;;1.43;0.60;;;;;;;3.63;100.00;99466.50;6205847;23;20186;-82
2023/02/02 08:11:37;;;;;;;1.57;0.53;;;;;;;3.69;100.00;99460.47;6177458;23;20288;-81
2023/02/02 08:14:11;;;;;;;0.77;0.57;;;;;;;3.69;100.00;99448.03;6206033;23;20754;-81
2023/02/02 08:16:42;;;;;;;1.37;0.60;;;;;;;3.66;100.00;99450.22;6182611;23;20190;-81
2023/02/02 08:19:14;;;;;;;1.30;0.60;;;;;;;3.74;100.00;99450.16;6157792;23;20210;-81
2023/02/02 08:21:42;;;;;;;1.63;0.70;;;;;;;3.78;100.00;99456.75;6204247;23;20214;-82
2023/02/02 08:24:12;;;;;;;1.40;1.10;;;;;;;3.82;100.00;99453.56;6180404;23;20208;-82
2023/02/02 08:26:47;;;;;;;1.33;0.50;;;;;;;3.91;100.00;99449.84;6209310;23;20173;-82
2023/02/02 08:29:22;;;;;;;2.30;0.80;;;;;;;3.98;100.00;99460.50;6198827;23;20208;-82
2023/02/02 08:32:35;;;;;;;1.10;0.50;;;;;;;4.14;100.00;99470.13;6156136;23;20205;-82
2023/02/02 08:35:20;;;;;;;3.53;1.37;;;;;;;4.13;100.00;99455.22;6178065;23;20222;-82
2023/02/02 08:37:54;;;;;;;2.53;1.00;;;;;;;4.19;100.00;99470.41;6157431;23;20234;-81
2023/02/02 08:40:36;;;;;;;1.40;0.70;;;;;;;4.27;100.00;99455.22;6171620;23;20202;-82
2023/02/02 08:43:06;;;;;;;1.80;0.73;;;;;;;4.33;100.00;99459.00;6174319;23;20229;-82
2023/02/02 08:45:51;;;;;;;1.83;0.50;;;;;;;4.47;100.00;99455.50;6155829;23;20226;-83
2023/02/02 08:48:35;;;;;;;2.03;0.67;;;;;;;4.50;100.00;99463.09;6175357;23;20218;-82
2023/02/02 08:51:14;;;;;;;1.37;0.60;;;;;;;4.64;100.00;99474.69;6180006;23;20282;-83
2023/02/02 08:53:49;;;;;;;2.20;0.63;;;;;;;4.63;100.00;99465.91;6164554;23;20203;-83
2023/02/02 08:56:48;;;;;;;1.03;0.50;;;;;;;4.63;100.00;99467.72;6177500;23;20257;-83
2023/02/02 08:59:37;;;;;;;1.87;0.67;;;;;;;4.77;100.00;99472.19;6178832;23;20203;-83
2023/02/02 09:02:39;;;;;;;1.03;0.43;;;;;;;4.63;100.00;99473.84;6180563;23;20209;-83
2023/02/02 09:05:16;;;;;;;2.37;0.80;;;;;;;4.73;100.00;99470.91;6159135;23;20177;-83
2023/02/02 09:08:25;;;;;;;0.40;0.37;;;;;;;4.68;100.00;99473.31;6142297;23;20151;-83
2023/02/02 09:11:26;;;;;;;3.43;0.60;;;;;;;4.88;100.00;99487.63;6145375;23;20184;-83
2023/02/02 09:14:38;;;;;;;3.40;0.70;;;;;;;4.85;100.00;99496.78;6182489;23;20174;-83
2023/02/02 09:17:15;;;;;;;1.80;0.53;;;;;;;4.80;100.00;99490.41;6241398;23;20154;-83
2023/02/02 09:20:13;;;;;;;1.67;0.50;;;;;;;4.80;100.00;99487.75;6242601;23;20165;-83
2023/02/02 11:20:36;;;;;;;2.30;0.93;;;;;;;5.75;100.00;99494.44;6226903;22;20232;-81
2023/02/02 11:23:06;;;;;;;1.57;0.50;;;;;;;5.75;100.00;99497.09;6222788;23;20209;-82
2023/02/02 11:25:34;;;;;;;1.77;0.50;;;;;;;5.59;100.00;99489.41;6222912;23;20213;-81
2023/02/02 11:28:12;;;;;;;1.17;0.70;;;;;;;5.68;100.00;99490.09;6221449;23;20226;-82
2023/02/02 11:30:39;;;;;;;1.13;0.73;;;;;;;5.81;100.00;99489.38;6220180;23;20668;-82
2023/02/02 11:33:34;;;;;;;0.93;0.50;;;;;;;6.01;100.00;99483.25;6220692;23;20205;-82
2023/02/02 11:36:06;;;;;;;1.53;0.70;;;;;;;6.06;100.00;99493.28;6217837;23;20209;-80
2023/02/02 11:38:33;;;;;;;0.63;0.47;;;;;;;6.05;100.00;99486.34;6217743;23;20232;-81
2023/02/02 11:41:03;;;;;;;2.80;0.47;;;;;;;6.07;100.00;99486.94;6242480;23;20202;-81
2023/02/02 11:43:41;;;;;;;1.53;0.50;;;;;;;6.04;100.00;99482.00;6217599;23;20225;-81
2023/02/02 11:46:20;;;;;;;1.87;0.60;;;;;;;6.08;100.00;99483.28;6216913;23;20213;-80
2023/02/02 11:48:57;;;;;;;0.50;0.40;;;;;;;6.06;100.00;99485.31;6216189;23;20201;-80
2023/02/02 11:51:25;;;;;;;0.53;0.53;;;;;;;5.86;100.00;99471.84;6216362;23;20609;-81
2023/02/02 11:54:24;;;;;;;2.13;0.80;;;;;;;5.78;100.00;99475.44;6216065;23;20204;-80
2023/02/02 11:56:52;;;;;;;1.20;0.90;;;;;;;5.82;100.00;99473.25;6201105;23;20209;-81
2023/02/02 11:59:49;;;;;;;3.17;1.07;;;;;;;5.73;100.00;99469.91;6215939;23;20203;-80
2023/02/02 12:02:19;;;;;;;1.57;0.70;;;;;;;5.70;100.00;99469.44;6196050;23;20205;-80
2023/02/02 12:04:48;;;;;;;0.70;0.50;;;;;;;5.63;100.00;99469.41;6216819;23;20292;-80
2023/02/02 12:07:20;;;;;;;1.17;0.67;;;;;;;5.64;100.00;99473.72;6214425;23;20210;-80
2023/02/02 12:09:52;;;;;;;1.33;0.70;;;;;;;5.61;100.00;99478.56;6216330;23;20211;-80
2023/02/02 12:12:42;;;;;;;1.37;0.70;;;;;;;5.70;100.00;99456.16;6214671;23;20670;-80
2023/02/02 12:15:28;;;;;;;2.87;0.90;;;;;;;5.78;100.00;99463.19;6214128;23;20657;-80
2023/02/02 12:18:16;;;;;;;2.23;0.80;;;;;;;5.80;100.00;99454.00;6214093;23;20255;-80
2023/02/02 12:20:51;;;;;;;2.57;0.83;;;;;;;5.93;100.00;99459.44;6216066;23;20209;-80
2023/02/02 12:23:33;;;;;;;1.50;0.70;;;;;;;5.98;100.00;99461.50;6215264;23;20541;-81
2023/02/02 12:26:14;;;;;;;1.30;0.80;;;;;;;6.00;100.00;99454.16;6216620;23;20222;-80
2023/02/02 12:29:15;;;;;;;2.07;0.70;;;;;;;5.91;100.00;99461.47;6217257;23;20235;-81
2023/02/02 12:31:57;;;;;;;2.83;0.63;;;;;;;5.87;100.00;99462.06;6216295;23;20598;-80
2023/02/02 12:34:43;;;;;;;2.43;0.70;;;;;;;5.73;100.00;99458.44;6214492;23;20205;-81
2023/02/02 12:37:23;;;;;;;1.30;0.77;;;;;;;5.84;100.00;99455.25;6216486;23;20658;-80
2023/02/02 12:40:06;;;;;;;1.80;0.60;;;;;;;5.70;100.00;99464.13;6216659;23;20279;-80
2023/02/02 12:42:54;;;;;;;1.83;0.90;;;;;;;5.71;100.00;99453.31;6216498;23;20232;-81
2023/02/02 12:46:06;;;;;;;2.37;0.80;;;;;;;5.63;100.00;99445.50;6215088;23;20211;-80
2023/02/02 12:48:41;;;;;;;1.73;0.60;;;;;;;5.57;100.00;99443.59;6207843;23;20212;-81
2023/02/02 12:51:23;;;;;;;1.63;0.70;;;;;;;5.56;100.00;99436.63;6217091;23;20205;-81
2023/02/02 12:54:08;;;;;;;3.07;0.80;;;;;;;5.55;100.00;99448.25;6218558;23;20213;-80
2023/02/02 12:57:30;;;;;;;1.70;0.70;;;;;;;5.55;100.00;99440.28;6218477;23;20384;-80
2023/02/02 13:00:18;;;;;;;1.80;0.60;;;;;;;5.54;100.00;99435.19;6215167;23;20270;-81
2023/02/02 13:03:04;;;;;;;2.23;0.80;;;;;;;5.49;100.00;99433.09;6217111;23;20209;-81
2023/02/02 13:05:55;;;;;;;1.13;0.80;;;;;;;5.65;100.00;99445.28;6216853;23;20193;-81
2023/02/02 13:08:42;;;;;;;2.07;0.93;;;;;;;5.67;100.00;99445.91;6216342;23;20201;-81
2023/02/02 13:11:28;;;;;;;2.10;0.80;;;;;;;5.64;100.00;99452.47;6218460;23;20284;-81
2023/02/02 13:14:08;;;;;;;1.73;0.80;;;;;;;5.57;100.00;99453.41;6217164;23;20256;-80
2023/02/02 13:16:37;;;;;;;1.33;0.67;;;;;;;5.56;100.00;99446.44;6216678;23;20728;-81
2023/02/02 13:19:19;;;;;;;2.70;1.23;;;;;;;5.60;100.00;99448.50;6215891;23;20332;-80
2023/02/02 13:21:47;;;;;;;2.57;0.73;;;;;;;5.48;100.00;99434.09;6216908;23;20213;-80
2023/02/02 13:24:18;;;;;;;1.60;0.70;;;;;;;5.56;100.00;99439.28;6217915;23;20213;-81
2023/02/02 13:26:46;;;;;;;4.37;0.83;;;;;;;5.70;100.00;99441.03;6216317;23;20264;-80
2023/02/02 13:29:51;;;;;;;2.43;1.00;;;;;;;5.45;100.00;99442.47;6218601;23;20737;-80
2023/02/02 13:32:25;;;;;;;3.83;0.80;;;;;;;5.55;100.00;99440.28;6207890;23;20256;-79
2023/02/02 13:35:18;;;;;;;3.83;1.00;;;;;;;5.45;100.00;99433.69;6218098;23;20627;-80
2023/02/02 13:37:52;;;;;;;1.43;0.90;;;;;;;5.43;100.00;99443.66;6210497;23;20237;-81
2023/02/02 13:40:30;;;;;;;2.63;0.90;;;;;;;5.38;100.00;99438.09;6216523;23;20205;-80
2023/02/02 13:43:29;;;;;;;1.23;0.80;;;;;;;5.32;100.00;99440.50;6245390;23;20212;-81
2023/02/02 13:46:04;;;;;;;0.80;0.80;;;;;;;5.30;100.00;99449.69;6218581;23;20570;-79
2023/02/02 13:48:50;;;;;;;2.20;0.93;;;;;;;5.25;100.00;99454.75;6216712;23;20201;-79
2023/02/02 13:51:26;;;;;;;1.77;0.90;;;;;;;5.34;100.00;99445.63;6215031;23;20271;-79
2023/02/02 13:54:28;;;;;;;1.87;0.77;;;;;;;5.29;100.00;99464.78;6216636;23;20211;-79
2023/02/02 13:57:04;;;;;;;2.37;0.90;;;;;;;5.26;100.00;99467.03;6215954;23;20208;-79
2023/02/02 13:59:33;;;;;;;3.47;0.90;;;;;;;5.29;100.00;99467.44;6216718;23;20213;-78
2023/02/02 14:02:00;;;;;;;2.40;0.80;;;;;;;5.34;100.00;99466.88;6216166;23;20285;-78
2023/02/02 14:04:29;;;;;;;2.13;0.73;;;;;;;5.33;100.00;99470.53;6216665;23;20193;-81
2023/02/02 14:06:59;;;;;;;3.00;1.17;;;;;;;5.42;100.00;99468.59;6219282;23;20218;-81
2023/02/02 14:09:27;;;;;;;5.27;1.67;;;;;;;5.40;100.00;99465.31;6218032;23;20201;-81
2023/02/02 14:12:00;;;;;;;2.37;1.00;;;;;;;5.36;100.00;99472.84;6220246;23;20280;-81
2023/02/02 14:14:37;;;;;;;2.23;1.20;;;;;;;5.43;100.00;99468.41;6219571;23;20205;-81
2023/02/02 14:17:24;;;;;;;2.50;1.30;;;;;;;5.31;100.00;99472.59;6219621;23;20681;-82
2023/02/02 14:19:52;;;;;;;3.43;1.90;;;;;;;5.30;100.00;99473.59;6209150;23;20201;-81
2023/02/02 14:22:37;;;;;;;2.10;1.30;;;;;;;5.29;100.00;99482.56;6219606;23;20205;-81
2023/02/02 14:25:32;;;;;;;1.03;0.70;;;;;;;5.29;100.00;99493.19;6194249;23;20209;-80
2023/02/02 14:28:01;;;;;;;2.13;0.70;;;;;;;5.24;100.00;99492.94;6210551;23;20250;-81
2023/02/02 14:30:37;;;;;;;1.30;0.70;;;;;;;5.05;100.00;99496.19;6218871;23;20205;-80
2023/02/02 14:33:19;;;;;;;1.00;0.80;;;;;;;5.08;100.00;99499.31;6220606;23;20209;-80
2023/02/02 14:35:46;;;;;;;1.17;0.70;;;;;;;5.04;100.00;99508.66;6220727;23;20706;-81
2023/02/02 14:38:43;;;;;;;1.23;0.70;;;;;;;5.04;100.00;99505.19;6218620;23;20237;-80
2023/02/02 14:43:42;;;;;;;1.90;0.77;;;;;;;4.91;100.00;99511.16;6208001;23;20205;-81
2023/02/02 14:44:03;;;;;;;0.77;0.70;;;;;;;4.94;100.00;99509.97;6221234;23;20225;-81
2023/02/02 14:46:46;;;;;;;2.73;0.70;;;;;;;4.93;100.00;99510.97;6218619;23;20541;-81
2023/02/02 14:49:19;;;;;;;1.70;0.70;;;;;;;4.79;100.00;99516.13;6196774;23;20213;-81
2023/02/02 14:51:50;;;;;;;1.73;0.60;;;;;;;4.88;100.00;99525.63;6220563;23;20205;-81
2023/02/02 14:54:26;;;;;;;0.50;0.50;;;;;;;4.86;100.00;99521.50;6219059;23;20217;-81
2023/02/02 14:57:02;;;;;;;0.90;0.50;;;;;;;4.90;100.00;99520.13;6218653;23;20256;-81
2023/02/02 14:59:36;;;;;;;0.50;0.50;;;;;;;4.81;100.00;99526.53;6218659;23;20205;-81
2023/02/02 15:02:18;;;;;;;0.63;0.40;;;;;;;4.83;100.00;99535.16;6218668;23;20205;-80
2023/02/02 15:04:48;;;;;;;2.17;0.70;;;;;;;4.64;100.00;99536.53;6218797;23;20186;-81
2023/02/02 15:07:21;;;;;;;0.97;0.60;;;;;;;4.62;100.00;99548.38;6218590;23;20205;-81
2023/02/02 15:09:49;;;;;;;2.43;0.60;;;;;;;4.65;100.00;99530.22;6243475;23;20209;-81
2023/02/02 15:12:17;;;;;;;0.57;0.40;;;;;;;4.63;100.00;99539.38;6219423;23;20554;-80
2023/02/02 15:14:46;;;;;;;1.80;0.50;;;;;;;4.67;100.00;99546.78;6242132;23;20251;-80
2023/02/02 15:17:40;;;;;;;1.00;0.40;;;;;;;4.57;100.00;99553.38;6218861;23;20211;-81
2023/02/02 15:20:25;;;;;;;0.60;0.40;;;;;;;4.55;100.00;99548.25;6219023;23;20221;-80
2023/02/02 15:22:56;;;;;;;1.27;0.43;;;;;;;4.48;100.00;99551.84;6219399;23;20209;-80